Time;durP1;ratioP1;P1;durP2;ratioP2;P2;SDS_P1;SDS_P2;PMS_P1;PMS_P2;Temp;Humidity;BMP_temperature;BMP_pressure;BME280_temperature;BME280_humidity;BME280_pressure;Samples;Min_cycle;Max_cycle;Signal;HPM_P1;HPM_P2
2022/11/21 00:01:36;;;;;;;;;;;;;;;5.50;100.00;96496.76;107669;1265;59714;-69
2022/11/21 00:04:06;;;;;;;;;;;;;;;5.49;100.00;96497.98;107705;1269;71374;-69
2022/11/21 00:06:35;;;;;;;;;;;;;;;5.50;100.00;96498.46;107743;1265;69610;-69
2022/11/21 00:09:04;;;;;;;;;;;;;;;5.51;100.00;96501.35;107652;1269;69195;-69
2022/11/21 00:11:33;;;;;;;;;;;;;;;5.50;100.00;96495.68;107669;1263;59795;-69
2022/11/21 00:14:02;;;;;;;;;;;;;;;5.51;100.00;96497.19;107780;1266;59806;-69
2022/11/21 00:16:31;;;;;;;;;;;;;;;5.51;100.00;96490.30;107736;1265;71380;-69
2022/11/21 00:19:01;;;;;;;;;;;;;;;5.50;100.00;96489.27;107677;1269;69078;-69
2022/11/21 00:21:30;;;;;;;;;;;;;;;5.50;100.00;96482.70;107669;1269;68511;-69
2022/11/21 00:24:01;;;;;;;;;;;;;;;5.51;100.00;96480.44;107694;1265;59795;-69
2022/11/21 00:26:31;;;;;;;;;;;;;;;5.50;100.00;96479.77;107661;1264;60160;-69
2022/11/21 00:29:01;;;;;;;;;;;;;;;5.49;100.00;96480.00;107738;1269;71759;-69
2022/11/21 00:31:30;;;;;;;;;;;;;;;5.50;100.00;96476.01;107639;1269;69228;-69
2022/11/21 00:34:02;;;;;;;;;;;;;;;5.50;100.00;96476.71;107650;1263;68452;-69
2022/11/21 00:36:32;;;;;;;;;;;;;;;5.48;100.00;96471.63;107650;1269;59737;-69
2022/11/21 00:39:02;;;;;;;;;;;;;;;5.48;100.00;96468.54;107705;1269;59707;-69
2022/11/21 00:41:31;;;;;;;;;;;;;;;5.48;100.00;96470.04;107760;1269;71429;-69
2022/11/21 00:44:01;;;;;;;;;;;;;;;5.49;100.00;96465.36;107686;1265;68267;-69
2022/11/21 00:46:31;;;;;;;;;;;;;;;5.50;100.00;96463.55;107658;1265;68587;-69
2022/11/21 00:49:01;;;;;;;;;;;;;;;5.50;100.00;96462.54;107694;1269;59781;-69
2022/11/21 00:51:33;;;;;;;;;;;;;;;5.49;100.00;96460.30;107720;1269;59761;-69
2022/11/21 00:54:03;;;;;;;;;;;;;;;5.46;100.00;96450.83;107642;1266;71352;-69
2022/11/21 00:56:33;;;;;;;;;;;;;;;5.46;100.00;96452.60;107661;1269;69216;-69
2022/11/21 00:59:03;;;;;;;;;;;;;;;5.44;100.00;96444.39;107692;1268;69185;-69
2022/11/21 01:01:32;;;;;;;;;;;;;;;5.44;100.00;96440.48;107696;1265;59754;-69
2022/11/21 01:04:01;;;;;;;;;;;;;;;5.42;100.00;96443.86;107792;1265;59635;-69
2022/11/21 01:06:31;;;;;;;;;;;;;;;5.37;100.00;96443.47;107749;1263;70549;-69
2022/11/21 01:09:01;;;;;;;;;;;;;;;5.33;100.00;96439.27;107681;1265;69211;-69
2022/11/21 01:11:31;;;;;;;;;;;;;;;5.31;100.00;96437.14;107762;1265;68498;-69
2022/11/21 01:14:00;;;;;;;;;;;;;;;5.32;100.00;96433.86;107721;1269;59759;-69
2022/11/21 01:16:30;;;;;;;;;;;;;;;5.31;100.00;96428.19;107737;1266;59790;-69
2022/11/21 01:19:00;;;;;;;;;;;;;;;5.31;100.00;96412.83;107706;1265;71400;-69
2022/11/21 01:21:30;;;;;;;;;;;;;;;5.33;100.00;96414.95;107698;1263;68231;-69
2022/11/21 01:24:01;;;;;;;;;;;;;;;5.33;100.00;96417.13;107769;1265;68777;-69
2022/11/21 01:26:33;;;;;;;;;;;;;;;5.35;100.00;96410.65;107748;1265;59708;-69
2022/11/21 01:29:07;;;;;;;;;;;;;;;5.36;100.00;96400.56;107752;1267;59773;-69
2022/11/21 01:31:37;;;;;;;;;;;;;;;5.36;100.00;96387.91;107769;1266;71436;-69
2022/11/21 01:34:08;;;;;;;;;;;;;;;5.35;100.00;96382.27;107744;1265;69173;-69
2022/11/21 01:36:38;;;;;;;;;;;;;;;5.36;100.00;96377.73;107747;1268;69413;-69
2022/11/21 01:39:09;;;;;;;;;;;;;;;5.38;100.00;96377.42;107699;1269;59719;-69
2022/11/21 01:41:43;;;;;;;;;;;;;;;5.39;100.00;96376.48;107800;1269;59787;-69
2022/11/21 01:44:20;;;;;;;;;;;;;;;5.40;100.00;96373.85;107777;1265;71242;-69
2022/11/21 01:46:51;;;;;;;;;;;;;;;5.39;100.00;96370.45;107731;1269;69251;-69
2022/11/21 01:49:22;;;;;;;;;;;;;;;5.40;100.00;96364.35;107765;1265;68598;-69
2022/11/21 01:52:03;;;;;;;;;;;;;;;5.40;100.00;96358.80;107750;1266;59688;-69
2022/11/21 01:54:46;;;;;;;;;;;;;;;5.40;100.00;96356.92;107780;1269;59660;-69
2022/11/21 01:57:37;;;;;;;;;;;;;;;5.39;100.00;96362.16;107724;1265;71996;-69
2022/11/21 02:00:22;;;;;;;;;;;;;;;5.38;100.00;96345.99;107663;1269;69207;-69
2022/11/21 02:02:58;;;;;;;;;;;;;;;5.37;100.00;96337.58;107726;1265;67906;-69
2022/11/21 02:05:30;;;;;;;;;;;;;;;5.36;100.00;96334.18;107651;1269;59705;-69
2022/11/21 02:08:02;;;;;;;;;;;;;;;5.34;100.00;96322.59;107719;1269;59716;-69
2022/11/21 02:10:34;;;;;;;;;;;;;;;5.33;100.00;96312.68;107680;1269;70626;-69
2022/11/21 02:13:04;;;;;;;;;;;;;;;5.31;100.00;96308.30;107700;1265;68485;-69
2022/11/21 02:15:33;;;;;;;;;;;;;;;5.30;100.00;96297.48;107653;1269;69136;-69
2022/11/21 02:18:05;;;;;;;;;;;;;;;5.27;100.00;96287.63;107656;1263;59726;-69
2022/11/21 02:20:35;;;;;;;;;;;;;;;5.26;100.00;96284.82;107687;1266;59707;-69
2022/11/21 02:23:05;;;;;;;;;;;;;;;5.23;100.00;96273.11;107733;1265;72021;-69
2022/11/21 02:25:40;;;;;;;;;;;;;;;5.21;100.00;96278.56;107641;1269;68120;-69
2022/11/21 02:28:18;;;;;;;;;;;;;;;5.21;100.00;96274.61;107666;1269;69111;-69
2022/11/21 02:30:47;;;;;;;;;;;;;;;5.19;100.00;96273.36;107747;1269;59748;-69
2022/11/21 02:33:17;;;;;;;;;;;;;;;5.19;100.00;96265.77;107733;1265;59748;-69
2022/11/21 02:35:56;;;;;;;;;;;;;;;5.18;100.00;96255.88;107725;1265;72139;-69
2022/11/21 02:38:34;;;;;;;;;;;;;;;5.17;100.00;96246.77;107672;1269;68860;-70
2022/11/21 02:41:11;;;;;;;;;;;;;;;5.15;100.00;96235.80;107680;1265;69275;-70
2022/11/21 02:43:44;;;;;;;;;;;;;;;5.14;100.00;96231.63;107896;1266;59722;-69
2022/11/21 02:46:14;;;;;;;;;;;;;;;5.11;100.00;96230.55;107670;1266;59701;-69
2022/11/21 02:48:45;;;;;;;;;;;;;;;5.11;100.00;96230.05;107686;1269;69555;-70
2022/11/21 02:51:14;;;;;;;;;;;;;;;5.09;100.00;96232.62;107650;1263;69173;-70
2022/11/21 02:53:45;;;;;;;;;;;;;;;5.09;100.00;96233.83;107679;1269;69657;-70
2022/11/21 02:56:15;;;;;;;;;;;;;;;5.09;100.00;96227.25;107759;1269;59709;-69
2022/11/21 02:58:45;;;;;;;;;;;;;;;5.09;100.00;96219.65;107748;1264;59760;-70
2022/11/21 03:01:15;;;;;;;;;;;;;;;5.10;100.00;96224.59;107774;1269;70585;-69
2022/11/21 03:03:45;;;;;;;;;;;;;;;5.13;100.00;96228.92;107760;1269;69141;-70
2022/11/21 03:06:16;;;;;;;;;;;;;;;5.14;100.00;96221.10;107726;1265;69405;-70
2022/11/21 03:08:45;;;;;;;;;;;;;;;5.15;100.00;96207.02;107751;1265;59693;-70
2022/11/21 03:11:14;;;;;;;;;;;;;;;5.16;100.00;96188.83;107782;1269;59717;-70
2022/11/21 03:13:44;;;;;;;;;;;;;;;5.15;100.00;96180.77;107790;1263;71969;-70
2022/11/21 03:16:14;;;;;;;;;;;;;;;5.11;100.00;96179.42;107771;1263;68669;-70
2022/11/21 03:18:44;;;;;;;;;;;;;;;5.10;100.00;96173.77;107753;1265;68492;-70
2022/11/21 03:21:14;;;;;;;;;;;;;;;5.11;100.00;96176.52;107760;1265;59753;-70
2022/11/21 03:23:43;;;;;;;;;;;;;;;5.12;100.00;96174.21;107788;1263;59716;-70
2022/11/21 03:26:14;;;;;;;;;;;;;;;5.13;100.00;96175.71;107741;1260;71431;-70
2022/11/21 03:28:45;;;;;;;;;;;;;;;5.13;100.00;96171.20;107764;1264;68517;-69
2022/11/21 03:31:15;;;;;;;;;;;;;;;5.13;100.00;96166.90;107688;1269;68662;-70
2022/11/21 03:33:45;;;;;;;;;;;;;;;5.12;100.00;96164.35;107696;1266;59736;-70
2022/11/21 03:36:14;;;;;;;;;;;;;;;5.12;100.00;96162.61;107719;1266;59771;-70
2022/11/21 03:38:44;;;;;;;;;;;;;;;5.13;100.00;96167.77;107790;1265;71358;-70
2022/11/21 03:41:35;;;;;;;;;;;;;;;5.13;100.00;96170.69;107818;1269;68406;-70
2022/11/21 03:44:07;;;;;;;;;;;;;;;5.11;100.00;96168.35;107713;1266;68810;-70
2022/11/21 03:46:38;;;;;;;;;;;;;;;5.10;100.00;96166.89;107704;1263;59836;-70
2022/11/21 03:49:09;;;;;;;;;;;;;;;5.10;100.00;96164.16;107676;1269;59735;-70
2022/11/21 03:51:38;;;;;;;;;;;;;;;5.10;100.00;96162.58;107703;1265;71499;-70
2022/11/21 03:54:07;;;;;;;;;;;;;;;5.11;100.00;96150.27;107723;1269;69084;-70
2022/11/21 03:56:40;;;;;;;;;;;;;;;5.11;100.00;96135.07;107783;1269;68673;-70
2022/11/21 03:59:10;;;;;;;;;;;;;;;5.10;100.00;96132.50;107701;1266;59783;-70
2022/11/21 04:01:40;;;;;;;;;;;;;;;5.11;100.00;96131.07;107679;1269;59700;-70
2022/11/21 04:04:10;;;;;;;;;;;;;;;5.12;100.00;96127.73;107678;1265;72085;-70
2022/11/21 04:06:39;;;;;;;;;;;;;;;5.13;100.00;96120.42;107678;1269;68237;-70
2022/11/21 04:09:08;;;;;;;;;;;;;;;5.14;100.00;96114.16;107680;1266;69723;-70
2022/11/21 04:11:37;;;;;;;;;;;;;;;5.15;100.00;96106.45;107699;1269;59734;-70
2022/11/21 04:14:06;;;;;;;;;;;;;;;5.16;100.00;96097.91;107717;1265;59834;-70
2022/11/21 04:16:35;;;;;;;;;;;;;;;5.16;100.00;96089.83;107706;1265;72049;-70
2022/11/21 04:19:04;;;;;;;;;;;;;;;5.11;100.00;96081.71;107743;1269;68387;-70
2022/11/21 04:21:34;;;;;;;;;;;;;;;5.11;100.00;96076.48;107765;1269;69267;-70
2022/11/21 04:24:04;;;;;;;;;;;;;;;5.10;100.00;96069.87;107775;1269;59737;-70
2022/11/21 04:26:34;;;;;;;;;;;;;;;5.08;100.00;96066.05;107665;1265;59771;-70
2022/11/21 04:29:03;;;;;;;;;;;;;;;5.07;100.00;96061.78;107685;1269;70769;-70
2022/11/21 04:31:32;;;;;;;;;;;;;;;5.05;100.00;96059.66;107737;1268;69015;-69
2022/11/21 04:34:02;;;;;;;;;;;;;;;5.04;100.00;96060.81;107729;1270;68523;-70
2022/11/21 04:36:32;;;;;;;;;;;;;;;5.01;100.00;96064.45;107755;1269;59727;-70
2022/11/21 04:39:01;;;;;;;;;;;;;;;4.97;100.00;96058.16;107704;1269;59755;-70
2022/11/21 04:41:30;;;;;;;;;;;;;;;4.95;100.00;96059.38;107727;1269;70986;-70
2022/11/21 04:44:00;;;;;;;;;;;;;;;4.92;100.00;96058.04;107675;1269;69641;-70
2022/11/21 04:46:29;;;;;;;;;;;;;;;4.88;100.00;96056.07;107741;1268;67878;-70
2022/11/21 04:48:59;;;;;;;;;;;;;;;4.91;100.00;96048.43;107736;1263;59724;-70
2022/11/21 04:51:28;;;;;;;;;;;;;;;4.93;100.00;96040.38;107750;1263;59682;-70
2022/11/21 04:53:57;;;;;;;;;;;;;;;4.93;100.00;96039.48;107698;1266;71615;-70
2022/11/21 04:56:26;;;;;;;;;;;;;;;4.93;100.00;96038.46;107664;1266;69149;-70
2022/11/21 04:58:56;;;;;;;;;;;;;;;4.94;100.00;96037.90;107716;1268;68087;-71
2022/11/21 05:01:24;;;;;;;;;;;;;;;4.93;100.00;96035.35;107766;1268;59723;-70
2022/11/21 05:03:53;;;;;;;;;;;;;;;4.91;100.00;96035.48;107678;1269;59655;-70
2022/11/21 05:06:22;;;;;;;;;;;;;;;4.91;100.00;96032.88;107680;1263;71392;-70
2022/11/21 05:08:52;;;;;;;;;;;;;;;4.91;100.00;96030.87;107652;1263;70218;-70
2022/11/21 05:14:09;;;;;;;;;;;;;;;4.91;100.00;96016.85;107752;1268;59710;-70
2022/11/21 05:16:38;;;;;;;;;;;;;;;4.90;100.00;96010.02;107749;1268;59793;-70
2022/11/21 05:19:08;;;;;;;;;;;;;;;4.90;100.00;96010.35;107778;1265;71918;-70
2022/11/21 05:21:37;;;;;;;;;;;;;;;4.90;100.00;96000.53;107667;1265;68975;-70
2022/11/21 05:24:06;;;;;;;;;;;;;;;4.90;100.00;95994.83;107672;1265;69251;-70
2022/11/21 05:26:36;;;;;;;;;;;;;;;4.90;100.00;95992.76;107694;1266;59749;-70
2022/11/21 05:29:06;;;;;;;;;;;;;;;4.89;100.00;95992.29;107763;1265;59726;-70
2022/11/21 05:31:35;;;;;;;;;;;;;;;4.89;100.00;95982.48;107756;1265;71336;-70
2022/11/21 05:34:04;;;;;;;;;;;;;;;4.89;100.00;95971.79;107682;1269;69163;-70
2022/11/21 05:36:34;;;;;;;;;;;;;;;4.86;100.00;95963.17;107674;1269;69250;-70
2022/11/21 05:39:03;;;;;;;;;;;;;;;4.86;100.00;95970.08;107683;1263;59773;-70
2022/11/21 05:41:33;;;;;;;;;;;;;;;4.87;100.00;95979.00;107862;1265;59690;-70
2022/11/21 05:44:02;;;;;;;;;;;;;;;4.86;100.00;95982.67;107740;1265;70467;-71
2022/11/21 05:46:31;;;;;;;;;;;;;;;4.86;100.00;95986.34;107771;1263;68721;-72
2022/11/21 05:49:00;;;;;;;;;;;;;;;4.85;100.00;95977.38;107780;1265;69247;-69
2022/11/21 05:51:30;;;;;;;;;;;;;;;4.85;100.00;95974.11;107753;1267;59725;-69
2022/11/21 05:54:00;;;;;;;;;;;;;;;4.84;100.00;95977.96;107769;1263;59779;-69
2022/11/21 05:56:29;;;;;;;;;;;;;;;4.82;100.00;95989.66;107806;1266;70456;-70
2022/11/21 05:58:58;;;;;;;;;;;;;;;4.79;100.00;95993.70;107746;1265;69804;-70
2022/11/21 06:04:14;;;;;;;;;;;;;;;4.77;100.00;96001.11;107692;1265;59776;-70
2022/11/21 06:06:42;;;;;;;;;;;;;;;4.77;100.00;96002.30;107737;1268;59709;-70
2022/11/21 06:09:13;;;;;;;;;;;;;;;4.76;100.00;95997.91;107767;1268;72096;-70
2022/11/21 06:11:41;;;;;;;;;;;;;;;4.76;100.00;95997.21;107799;1265;69695;-70
2022/11/21 06:14:11;;;;;;;;;;;;;;;4.76;100.00;95999.81;107761;1269;69361;-70
2022/11/21 06:16:40;;;;;;;;;;;;;;;4.74;100.00;95999.46;107718;1269;59726;-70
2022/11/21 06:19:08;;;;;;;;;;;;;;;4.73;100.00;95994.33;107720;1269;59736;-70
2022/11/21 06:21:37;;;;;;;;;;;;;;;4.72;100.00;95992.20;107708;1269;71426;-70
2022/11/21 06:24:06;;;;;;;;;;;;;;;4.70;100.00;95988.84;107693;1269;68681;-71
2022/11/21 06:26:35;;;;;;;;;;;;;;;4.68;100.00;95988.30;107774;1263;69162;-71
2022/11/21 06:29:03;;;;;;;;;;;;;;;4.66;100.00;95989.83;107695;1266;59767;-71
2022/11/21 06:31:32;;;;;;;;;;;;;;;4.62;100.00;95991.30;107649;1269;59796;-70
2022/11/21 06:34:01;;;;;;;;;;;;;;;4.58;100.00;95981.61;107717;1265;72157;-69
2022/11/21 06:36:31;;;;;;;;;;;;;;;4.53;100.00;95979.16;107792;1267;68406;-70
2022/11/21 06:39:00;;;;;;;;;;;;;;;4.51;100.00;95979.35;107781;1269;69246;-69
2022/11/21 06:41:29;;;;;;;;;;;;;;;4.46;100.00;95980.53;107714;1266;59730;-69
2022/11/21 06:44:01;;;;;;;;;;;;;;;4.43;100.00;95978.88;107679;1266;59704;-69
2022/11/21 06:46:30;;;;;;;;;;;;;;;4.40;100.00;95982.52;107749;1263;71940;-70
2022/11/21 06:48:59;;;;;;;;;;;;;;;4.37;100.00;95985.00;107763;1265;69018;-70
2022/11/21 06:51:27;;;;;;;;;;;;;;;4.37;100.00;95986.40;107771;1269;68430;-69
2022/11/21 06:53:58;;;;;;;;;;;;;;;4.33;100.00;95987.65;107766;1269;59712;-69
2022/11/21 06:56:27;;;;;;;;;;;;;;;4.32;100.00;95991.36;107741;1268;59662;-69
2022/11/21 06:58:56;;;;;;;;;;;;;;;4.30;100.00;95988.38;107790;1269;71209;-69
2022/11/21 07:01:25;;;;;;;;;;;;;;;4.29;100.00;95987.11;107777;1266;69051;-70
2022/11/21 07:03:54;;;;;;;;;;;;;;;4.29;100.00;95989.00;107739;1269;69764;-70
2022/11/21 07:06:23;;;;;;;;;;;;;;;4.26;100.00;95991.27;107738;1270;59735;-70
2022/11/21 07:08:53;;;;;;;;;;;;;;;4.25;100.00;95986.18;107723;1269;59658;-70
2022/11/21 07:11:42;;;;;;;;;;;;;;;4.26;100.00;95984.91;107677;1269;70949;-71
2022/11/21 07:14:10;;;;;;;;;;;;;;;4.25;100.00;95985.31;107374;1265;458278;-70
2022/11/21 07:16:39;;;;;;;;;;;;;;;4.25;100.00;95983.27;107771;1263;69290;-71
2022/11/21 07:19:08;;;;;;;;;;;;;;;4.24;100.00;95978.63;107774;1263;59697;-71
2022/11/21 07:21:37;;;;;;;;;;;;;;;4.23;100.00;95979.80;107802;1265;59765;-71
2022/11/21 07:24:06;;;;;;;;;;;;;;;4.23;100.00;95981.34;107754;1265;71208;-71
2022/11/21 07:26:34;;;;;;;;;;;;;;;4.22;100.00;95978.98;107699;1269;69023;-72
2022/11/21 07:29:03;;;;;;;;;;;;;;;4.21;100.00;95982.01;107917;1266;68847;-70
2022/11/21 07:31:32;;;;;;;;;;;;;;;4.21;100.00;95985.80;107758;1269;59690;-71
2022/11/21 07:34:01;;;;;;;;;;;;;;;4.20;100.00;95984.08;107725;1269;59712;-72
2022/11/21 07:36:31;;;;;;;;;;;;;;;4.21;100.00;95983.89;107762;1270;71923;-71
2022/11/21 07:39:00;;;;;;;;;;;;;;;4.21;100.00;95984.90;107725;1269;69704;-71
2022/11/21 07:41:28;;;;;;;;;;;;;;;4.22;100.00;95986.36;107664;1268;69243;-70
2022/11/21 07:43:57;;;;;;;;;;;;;;;4.24;100.00;95984.88;107730;1269;59701;-71
2022/11/21 07:46:25;;;;;;;;;;;;;;;4.25;100.00;95984.96;107813;1270;59701;-70
2022/11/21 07:48:54;;;;;;;;;;;;;;;4.25;100.00;95985.16;107771;1268;71378;-70
2022/11/21 07:51:30;;;;;;;;;;;;;;;4.26;100.00;95987.69;107752;1269;69040;-70
2022/11/21 07:53:58;;;;;;;;;;;;;;;4.27;100.00;95984.29;107685;1269;69977;-70
2022/11/21 07:56:27;;;;;;;;;;;;;;;4.28;100.00;95988.19;107746;1269;59733;-70
2022/11/21 07:58:56;;;;;;;;;;;;;;;4.30;100.00;95988.95;107815;1269;59684;-70
2022/11/21 08:01:25;;;;;;;;;;;;;;;4.32;100.00;95988.98;107792;1268;71747;-70
2022/11/21 08:03:54;;;;;;;;;;;;;;;4.34;100.00;95992.08;107782;1265;68819;-70
2022/11/21 08:06:23;;;;;;;;;;;;;;;4.35;100.00;95992.35;107775;1265;68201;-70
2022/11/21 08:08:52;;;;;;;;;;;;;;;4.36;100.00;95989.02;107736;1269;59657;-71
2022/11/21 08:22:25;;;;;;;5.30;4.00;;;;;;;4.76;100.00;95997.89;105566;1286;609629;-70
2022/11/21 08:24:54;;;;;;;4.40;3.30;;;;;;;4.81;100.00;95999.96;106732;1275;245371;-70
2022/11/21 08:27:23;;;;;;;5.70;4.10;;;;;;;4.79;100.00;95999.91;107130;1279;57692;-70
2022/11/21 08:29:52;;;;;;;4.70;3.90;;;;;;;4.80;100.00;95997.13;107248;1278;68290;-72
2022/11/21 08:32:21;;;;;;;5.60;3.80;;;;;;;4.76;100.00;96001.84;107251;1278;69174;-70
2022/11/21 08:34:50;;;;;;;4.40;3.20;;;;;;;4.75;100.00;96000.42;107272;1279;68738;-71
2022/11/21 08:37:19;;;;;;;5.50;4.10;;;;;;;4.74;100.00;96006.87;107694;1265;57678;-71
2022/11/21 08:39:48;;;;;;;4.40;3.50;;;;;;;4.75;100.00;96005.41;107720;1269;57722;-71
2022/11/21 08:42:17;;;;;;;5.30;3.40;;;;;;;4.74;100.00;96003.55;107691;1265;69692;-71
2022/11/21 08:44:46;;;;;;;4.60;3.70;;;;;;;4.72;100.00;96006.63;107730;1269;68450;-71
2022/11/21 08:47:15;;;;;;;4.10;3.40;;;;;;;4.74;100.00;96006.19;107654;1269;70068;-71
2022/11/21 08:49:44;;;;;;;4.70;3.10;;;;;;;4.75;100.00;96004.70;107722;1268;58121;-71
2022/11/21 08:52:16;;;;;;;5.60;4.00;;;;;;;4.73;100.00;96003.69;107719;1269;58112;-71
2022/11/21 08:54:44;;;;;;;4.50;3.40;;;;;;;4.73;100.00;96009.66;107863;1269;69644;-70
2022/11/21 08:57:13;;;;;;;5.20;3.60;;;;;;;4.75;100.00;96012.97;107691;1266;68380;-69
2022/11/21 08:59:42;;;;;;;4.90;3.10;;;;;;;4.76;100.00;96010.16;107655;1267;69125;-69
2022/11/21 09:02:11;;;;;;;4.70;3.50;;;;;;;4.78;100.00;96013.46;107799;1261;58181;-69
2022/11/21 09:04:40;;;;;;;5.20;3.80;;;;;;;4.80;100.00;96012.13;107931;1266;58363;-69
2022/11/21 09:07:09;;;;;;;5.70;3.90;;;;;;;4.81;100.00;96015.68;107722;1266;69767;-69
2022/11/21 09:09:38;;;;;;;3.90;2.80;;;;;;;4.83;100.00;96014.83;107696;1261;68641;-69
2022/11/21 09:12:06;;;;;;;6.60;3.40;;;;;;;4.83;100.00;96013.41;107800;1266;70016;-69
2022/11/21 09:20:10;;;;;;;4.80;3.50;;;;;;;4.93;100.00;96020.20;107638;1266;69634;-69
2022/11/21 09:22:39;;;;;;;4.40;3.00;;;;;;;4.95;100.00;96016.05;107629;1267;69819;-70
2022/11/21 09:25:08;;;;;;;4.00;2.50;;;;;;;4.98;100.00;96017.17;107727;1263;69259;-69
2022/11/21 09:27:37;;;;;;;4.20;2.80;;;;;;;4.99;100.00;96012.43;107708;1266;58166;-70
2022/11/21 09:30:06;;;;;;;3.40;2.60;;;;;;;5.02;100.00;96010.02;107906;1263;58122;-69
2022/11/21 09:32:35;;;;;;;3.70;3.00;;;;;;;5.05;100.00;96013.59;107801;1266;69052;-71
2022/11/21 09:35:05;;;;;;;4.60;2.70;;;;;;;5.07;100.00;96016.39;107736;1270;69813;-71
2022/11/21 09:37:37;;;;;;;4.00;2.90;;;;;;;5.09;100.00;96019.48;107827;1266;68299;-71
2022/11/21 09:40:13;;;;;;;4.40;3.00;;;;;;;5.11;100.00;96012.42;107973;1266;58155;-69
2022/11/21 09:43:10;;;;;;;3.40;2.70;;;;;;;5.12;100.00;96010.13;107870;1266;58041;-69
2022/11/21 09:45:47;;;;;;;4.00;3.00;;;;;;;5.12;100.00;96007.02;107860;1266;69279;-71
2022/11/21 09:48:29;;;;;;;4.00;2.70;;;;;;;5.11;100.00;96008.27;107758;1262;69757;-71
2022/11/21 09:51:08;;;;;;;3.20;2.50;;;;;;;5.13;100.00;96006.60;107736;1266;69883;-69
2022/11/21 09:53:44;;;;;;;4.00;2.40;;;;;;;5.15;100.00;96004.23;107809;1267;58140;-72
2022/11/21 09:56:18;;;;;;;2.90;2.60;;;;;;;5.17;100.00;96006.70;107899;1262;58416;-69
2022/11/21 09:59:10;;;;;;;4.40;2.30;;;;;;;5.20;100.00;96005.74;107894;1262;69321;-69
2022/11/21 10:01:39;;;;;;;3.60;2.60;;;;;;;5.25;100.00;96008.70;107780;1266;69228;-70
2022/11/21 10:04:08;;;;;;;3.30;2.30;;;;;;;5.30;100.00;96009.67;107756;1266;68423;-70
2022/11/21 10:07:17;;;;;;;3.60;2.40;;;;;;;5.34;100.00;96012.83;107815;1266;58167;-69
2022/11/21 10:10:07;;;;;;;3.30;2.40;;;;;;;5.37;100.00;96013.80;107879;1262;58062;-70
2022/11/21 10:12:45;;;;;;;3.40;2.70;;;;;;;5.37;100.00;96014.87;107897;1266;70019;-69
2022/11/21 10:15:51;;;;;;;3.10;2.30;;;;;;;5.34;100.00;96016.26;107899;1266;69314;-70
2022/11/21 10:18:32;;;;;;;2.80;2.30;;;;;;;5.33;100.00;96018.61;107756;1266;68776;-70
2022/11/21 10:21:45;;;;;;;2.80;2.00;;;;;;;5.28;100.00;96024.50;107923;1266;58111;-69
2022/11/21 10:24:35;;;;;;;3.70;2.20;;;;;;;5.25;100.00;96032.98;107774;1266;58161;-70
2022/11/21 10:27:24;;;;;;;;;;;;;;;5.19;100.00;96030.85;107844;1263;68659;-69
2022/11/21 10:30:00;;;;;;;2.50;1.90;;;;;;;5.13;100.00;96035.63;107865;1266;68707;-69
2022/11/21 10:32:39;;;;;;;2.40;1.70;;;;;;;5.07;100.00;96036.73;107897;1266;69090;-70
2022/11/21 10:35:20;;;;;;;5.60;2.10;;;;;;;5.05;100.00;96043.77;107898;1263;58222;-69
2022/11/21 10:37:55;;;;;;;2.40;1.70;;;;;;;5.03;100.00;96048.63;107905;1266;58076;-70
2022/11/21 10:40:41;;;;;;;1.70;1.60;;;;;;;4.98;100.00;96050.66;107813;1266;69277;-69
2022/11/21 10:46:09;;;;;;;3.60;2.10;;;;;;;4.96;100.00;96053.07;107759;1267;68758;-69
2022/11/21 10:48:38;;;;;;;3.00;2.10;;;;;;;4.94;100.00;96055.98;107934;1266;58079;-69
2022/11/21 10:51:25;;;;;;;6.10;2.10;;;;;;;4.95;100.00;96057.81;107906;1266;58137;-70
2022/11/21 10:57:11;;;;;;;2.10;1.50;;;;;;;4.89;100.00;96061.20;107938;1266;68640;-69
2022/11/21 10:59:40;;;;;;;2.60;1.60;;;;;;;4.92;100.00;96062.52;107896;1266;68486;-70
2022/11/21 11:02:12;;;;;;;1.70;1.30;;;;;;;4.91;100.00;96059.86;107895;1266;58148;-70
2022/11/21 11:04:41;;;;;;;1.90;1.50;;;;;;;4.90;100.00;96064.39;107892;1266;58107;-70
2022/11/21 11:07:23;;;;;;;1.50;1.20;;;;;;;4.94;100.00;96064.80;107860;1266;69753;-70
2022/11/21 11:10:11;;;;;;;2.20;1.60;;;;;;;4.96;100.00;96069.33;107707;1267;69473;-70
2022/11/21 11:16:10;;;;;;;1.70;1.30;;;;;;;5.06;100.00;96074.80;107715;1266;58122;-70
2022/11/21 11:18:59;;;;;;;3.00;1.30;;;;;;;5.11;100.00;96079.48;107889;1266;58069;-69
2022/11/21 11:21:40;;;;;;;2.40;1.40;;;;;;;5.17;100.00;96085.30;107901;1261;69759;-70
2022/11/21 11:24:09;;;;;;;1.50;1.30;;;;;;;5.20;100.00;96085.27;107886;1262;69012;-70
2022/11/21 11:26:47;;;;;;;2.80;1.40;;;;;;;5.19;100.00;96090.83;107832;1266;69925;-70
2022/11/21 11:29:19;;;;;;;1.60;1.20;;;;;;;5.14;100.00;96095.69;107937;1266;58080;-70
2022/11/21 11:32:12;;;;;;;2.90;1.40;;;;;;;5.15;100.00;96098.03;107930;1266;58088;-70
2022/11/21 11:35:00;;;;;;;1.20;1.00;;;;;;;5.00;99.87;96099.11;107799;1261;69627;-70
2022/11/21 11:37:42;;;;;;;1.20;1.10;;;;;;;4.92;100.00;96099.13;107658;1266;69072;-70
2022/11/21 11:40:40;;;;;;;1.80;1.30;;;;;;;4.89;100.00;96102.08;107865;1266;68433;-70
2022/11/21 11:49:07;;;;;;;1.50;1.20;;;;;;;4.74;99.93;96114.91;107904;1266;69936;-70
2022/11/21 11:51:56;;;;;;;1.30;1.20;;;;;;;4.68;99.88;96112.57;107784;1266;68198;-70
2022/11/21 11:54:40;;;;;;;1.30;1.10;;;;;;;4.62;99.86;96113.48;107791;1266;68452;-70
2022/11/21 11:57:09;;;;;;;1.50;1.10;;;;;;;4.57;99.46;96115.08;107806;1263;58169;-70
2022/11/21 11:59:43;;;;;;;1.60;1.30;;;;;;;4.50;99.75;96119.31;107838;1262;58111;-70
2022/11/21 12:02:24;;;;;;;1.20;1.00;;;;;;;4.42;99.84;96124.52;107887;1266;69582;-70
2022/11/21 12:04:58;;;;;;;1.00;0.90;;;;;;;4.39;99.86;96129.27;107732;1262;69668;-70
2022/11/21 12:07:33;;;;;;;1.40;1.10;;;;;;;4.35;99.93;96138.11;107850;1266;69126;-70
2022/11/21 12:10:33;;;;;;;1.50;1.10;;;;;;;4.33;99.83;96148.27;107843;1262;58609;-70
2022/11/21 12:13:09;;;;;;;1.80;1.20;;;;;;;4.34;100.00;96151.14;107861;1266;58098;-70
2022/11/21 12:15:47;;;;;;;1.70;1.00;;;;;;;4.30;99.81;96149.50;107904;1266;68850;-71
2022/11/21 12:18:19;;;;;;;1.30;1.10;;;;;;;4.27;99.68;96153.01;107828;1266;70423;-70
2022/11/21 12:20:54;;;;;;;2.20;1.60;;;;;;;4.28;99.98;96158.45;107793;1267;69759;-71
2022/11/21 12:23:35;;;;;;;1.20;1.10;;;;;;;4.25;99.95;96155.36;107819;1266;58153;-70
2022/11/21 12:26:28;;;;;;;1.30;1.20;;;;;;;4.25;100.00;96155.85;107858;1266;58017;-70
2022/11/21 12:29:31;;;;;;;2.60;1.40;;;;;;;4.23;100.00;96153.47;107893;1264;69603;-70
2022/11/21 12:32:29;;;;;;;1.60;1.20;;;;;;;4.22;99.84;96156.94;107851;1262;69163;-70
2022/11/21 12:35:03;;;;;;;1.70;1.30;;;;;;;4.21;100.00;96164.59;107927;1264;70353;-70
2022/11/21 12:37:42;;;;;;;1.20;1.10;;;;;;;4.23;100.00;96165.52;107939;1266;58064;-71
2022/11/21 12:40:40;;;;;;;1.90;1.30;;;;;;;4.22;100.00;96166.44;107692;1266;58077;-71
2022/11/21 12:43:55;;;;;;;2.30;1.40;;;;;;;4.17;99.82;96171.27;107850;1266;70012;-70
2022/11/21 12:46:36;;;;;;;1.30;1.20;;;;;;;4.18;99.99;96178.11;107686;1271;70080;-70
2022/11/21 12:55:57;;;;;;;2.20;1.30;;;;;;;4.23;100.00;96175.34;107853;1266;58894;-70
2022/11/21 12:58:55;;;;;;;2.40;1.60;;;;;;;4.24;100.00;96178.00;107446;1269;70472;-70
2022/11/21 13:01:48;;;;;;;2.00;1.30;;;;;;;4.23;100.00;96190.17;107611;1266;69223;-70
2022/11/21 13:04:25;;;;;;;2.80;1.50;;;;;;;4.12;100.00;96189.20;107750;1266;69248;-70
2022/11/21 13:06:57;;;;;;;2.60;1.40;;;;;;;4.11;100.00;96192.17;107738;1264;58932;-69
2022/11/21 13:09:31;;;;;;;3.20;1.90;;;;;;;4.07;100.00;96193.83;107613;1266;58836;-70
2022/11/21 13:12:07;;;;;;;1.70;1.50;;;;;;;4.05;100.00;96200.95;107821;1265;70956;-71
2022/11/21 13:14:47;;;;;;;2.30;1.60;;;;;;;4.00;100.00;96205.27;107871;1267;69227;-71
2022/11/21 13:17:24;;;;;;;1.70;1.30;;;;;;;3.99;99.99;96209.16;107620;1266;69914;-71
2022/11/21 13:20:15;;;;;;;1.90;1.30;;;;;;;3.95;100.00;96213.75;107677;1262;58876;-71
2022/11/21 13:22:44;;;;;;;;;;;;;;;3.90;100.00;96215.23;107931;1267;58844;-70
2022/11/21 13:25:38;;;;;;;1.50;1.10;;;;;;;3.88;100.00;96213.50;107783;1267;70568;-71